ADDS METAR Data INFO
IDs: Format: Raw Decoded Include TAF

Data at: 0329 UTC 16 Dec 2017

KMEB 160252Z AUTO 36003KT 10SM CLR 04/M01 A3009 RMK AO2 SLP191 T00391011 51026
KMEB 160152Z AUTO 35004KT 10SM CLR 06/M01 A3007 RMK AO2 SLP184 T00561006
KMEB 160052Z AUTO 35006KT 10SM CLR 07/00 A3005 RMK AO2 SLP178 T00720000
KMEB 152352Z AUTO 36004KT 10SM CLR 08/01 A3002 RMK AO2 SLP165 T00780006 10139 20078 53027
KMEB 152252Z AUTO 34006KT 10SM CLR 08/01 A2999 RMK AO2 SLP156 T00830011
KMEB 152152Z AUTO 34008KT 10SM CLR 09/02 A2995 RMK AO2 SLP143 T00940017
KMEB 152052Z AUTO 34009KT 10SM CLR 12/02 A2994 RMK AO2 SLP136 T01170017 55001
KMEB 151952Z AUTO 28009KT 10SM CLR 13/01 A2993 RMK AO2 SLP134 T01280011
KMEB 151852Z AUTO 23009KT 10SM CLR 13/02 A2992 RMK AO2 SLP132 T01330017
KMEB 151752Z AUTO 28009KT 10SM CLR 13/02 A2994 RMK AO2 SLP138 T01330017 10133 20006 58020
KMEB 151652Z AUTO 23004KT 10SM CLR 10/03 A2997 RMK AO2 SLP148 T01000028
KMEB 151552Z AUTO 17003KT 10SM CLR 08/03 A2999 RMK AO2 SLP156 T00830028
KMEB 151452Z AUTO 06003KT 10SM CLR 07/02 A3000 RMK AO2 SLP158 T00670022 51006
KMEB 151352Z AUTO 02005KT 10SM CLR 04/02 A3000 RMK AO2 SLP158 T00440022
KMEB 151252Z AUTO 35005KT 8SM CLR 01/00 A2998 RMK AO2 SLP154 T00110000
KMEB 151152Z AUTO 00000KT 10SM CLR 02/01 A2998 RMK AO2 SLP153 T00220006 10039 20017 55002
KMEB 151052Z AUTO 10004KT 10SM CLR 03/01 A2998 RMK AO2 SLP152 T00280006
KMEB 150952Z AUTO 09005KT 10SM CLR 03/00 A2998 RMK AO2 SLP151 T00330000
KMEB 150852Z AUTO 05005KT 10SM CLR 03/00 A2999 RMK AO2 SLP153 T00330000 55002
KMEB 150752Z AUTO 03003KT 10SM CLR 03/00 A2998 RMK AO2 SLP153 T00330000
KMEB 150652Z AUTO 04004KT 10SM CLR 02/M01 A2998 RMK AO2 SLP151 T00221006
KMEB 150552Z AUTO 00000KT 10SM CLR 02/M01 A2999 RMK AO2 SLP156 T00171006 10056 20000 51004
KMEB 150452Z AUTO 00000KT 10SM CLR 01/M01 A2999 RMK AO2 SLP154 T00111006 401561006
KMEB 150352Z AUTO 36003KT 8SM CLR 01/M01 A2999 RMK AO2 SLP157 T00061011
KMEB 150252Z AUTO 00000KT 9SM CLR 02/M01 A2998 RMK AO2 SLP152 T00171006 50010
KMEB 150152Z AUTO 00000KT 10SM CLR 03/00 A2998 RMK AO2 SLP152 T00280000
KMEB 150052Z AUTO 00000KT 10SM CLR 04/00 A2996 RMK AO2 SLP147 T00440000
KMEB 142352Z AUTO 00000KT 10SM CLR 05/00 A2995 RMK AO2 SLP142 T00500000 10156 20050 51023
KMEB 142252Z AUTO 00000KT 10SM CLR 08/00 A2993 RMK AO2 SLP136 T00830000
KMEB 142152Z AUTO 27003KT 10SM CLR 12/M02 A2991 RMK AO2 SLP126 T01221017
KMEB 142052Z AUTO 25005KT 10SM CLR 14/M02 A2988 RMK AO2 SLP117 T01441022 53007
KMEB 141952Z AUTO 27004KT 10SM CLR 15/M02 A2986 RMK AO2 SLP111 T01501022
KMEB 141852Z AUTO 25006KT 10SM CLR 15/M02 A2985 RMK AO2 SLP108 T01501022
KMEB 141752Z AUTO 29007KT 10SM CLR 14/M02 A2986 RMK AO2 SLP110 T01441022 10144 21006 58008
KMEB 141652Z AUTO 27010KT 10SM CLR 13/M02 A2988 RMK AO2 SLP117 T01281022
KMEB 141552Z AUTO 29010KT 10SM CLR 11/M03 A2989 RMK AO2 SLP122 T01061028